Time;durP1;ratioP1;P1;durP2;ratioP2;P2;SDS_P1;SDS_P2;PMS_P1;PMS_P2;Temp;Humidity;BMP_temperature;BMP_pressure;BME280_temperature;BME280_humidity;BME280_pressure;Samples;Min_cycle;Max_cycle;Signal;HPM_P1;HPM_P2
2023/12/02 00:01:35;;;;;;;1999.90;999.90;;;;;;;0.03;100.00;93129.44;5008019;28;20191;-55
2023/12/02 00:04:00;;;;;;;1999.90;999.90;;;;;;;0.09;100.00;93133.25;5008007;28;20200;-55
2023/12/02 00:06:26;;;;;;;1999.90;999.90;;;;;;;0.04;100.00;93131.00;5007794;28;20194;-55
2023/12/02 00:08:51;;;;;;;1999.90;999.90;;;;;;;0.08;100.00;93126.38;5007927;28;20187;-54
2023/12/02 00:11:17;;;;;;;1999.90;999.90;;;;;;;0.13;100.00;93128.63;5007717;28;20417;-54
2023/12/02 00:13:42;;;;;;;1999.90;999.90;;;;;;;0.14;100.00;93130.16;5008037;28;20174;-54
2023/12/02 00:16:08;;;;;;;1999.90;999.90;;;;;;;0.14;100.00;93130.16;5008215;28;20267;-56
2023/12/02 00:18:34;;;;;;;1999.90;999.90;;;;;;;0.16;100.00;93122.47;5007727;28;20216;-54
2023/12/02 00:20:59;;;;;;;1999.90;999.90;;;;;;;0.16;100.00;93125.16;5007638;28;20207;-54
2023/12/02 00:23:24;;;;;;;1999.90;999.90;;;;;;;0.22;100.00;93136.25;5007633;28;20274;-56
2023/12/02 00:25:50;;;;;;;1999.90;999.90;;;;;;;0.12;100.00;93124.44;5008010;28;20422;-55
2023/12/02 00:28:15;;;;;;;1999.90;999.90;;;;;;;0.15;100.00;93134.38;5007549;28;20229;-58
2023/12/02 00:30:40;;;;;;;1999.90;999.90;;;;;;;0.11;100.00;93136.31;5007432;28;20274;-57
2023/12/02 00:33:06;;;;;;;1999.90;999.90;;;;;;;0.14;100.00;93130.16;5007519;28;20208;-57
2023/12/02 00:35:31;;;;;;;1999.90;999.90;;;;;;;0.12;100.00;93132.47;5008062;28;20237;-57
2023/12/02 00:37:56;;;;;;;1999.90;999.90;;;;;;;0.10;100.00;93140.13;5008161;28;20483;-56
2023/12/02 00:40:22;;;;;;;1999.90;999.90;;;;;;;0.11;100.00;93136.31;5011588;28;20210;-59
2023/12/02 00:42:47;;;;;;;1999.90;999.90;;;;;;;0.04;100.00;93141.72;5011616;28;20196;-59
2023/12/02 00:45:13;;;;;;;1999.90;999.90;;;;;;;0.07;100.00;93138.22;5011483;28;20175;-61
2023/12/02 00:47:38;;;;;;;1999.90;999.90;;;;;;;0.05;100.00;93148.59;5011895;28;20374;-59
2023/12/02 00:50:04;;;;;;;1999.90;999.90;;;;;;;0.05;100.00;93151.28;5011600;28;20187;-58
2023/12/02 00:52:29;;;;;;;1999.90;999.90;;;;;;;0.07;100.00;93148.22;5011310;28;20195;-58
2023/12/02 00:54:55;;;;;;;1999.90;999.90;;;;;;;0.08;100.00;93143.22;5012083;28;20187;-59
2023/12/02 00:57:20;;;;;;;1999.90;999.90;;;;;;;0.03;100.00;93146.31;5011563;28;20191;-59
2023/12/02 00:59:45;;;;;;;1999.90;999.90;;;;;;;0.02;100.00;93160.13;5011057;28;20206;-58
2023/12/02 01:02:11;;;;;;;1999.90;999.90;;;;;;;0.06;100.00;93160.84;5011181;28;20193;-59
2023/12/02 01:04:36;;;;;;;1999.90;999.90;;;;;;;0.14;100.00;93166.97;5011015;28;20192;-58
2023/12/02 01:07:01;;;;;;;1999.90;999.90;;;;;;;0.17;100.00;93161.56;5011503;28;20229;-57
2023/12/02 01:09:27;;;;;;;1999.90;999.90;;;;;;;0.22;100.00;93171.13;5011407;28;20190;-57
2023/12/02 01:11:52;;;;;;;1999.90;999.90;;;;;;;0.23;100.00;93173.41;5011194;28;20399;-58
2023/12/02 01:14:17;;;;;;;1999.90;999.90;;;;;;;0.26;100.00;93174.53;5011227;28;20187;-57
2023/12/02 01:16:43;;;;;;;1999.90;999.90;;;;;;;0.22;100.00;93173.81;5011432;28;20174;-58
2023/12/02 01:19:08;;;;;;;1999.90;999.90;;;;;;;0.20;100.00;93171.50;5011299;28;20194;-57
2023/12/02 01:21:33;;;;;;;1999.90;999.90;;;;;;;0.16;100.00;93170.78;5011268;28;20210;-60
2023/12/02 01:23:59;;;;;;;1999.90;999.90;;;;;;;0.15;100.00;93179.97;5010739;28;20203;-56
2023/12/02 01:26:24;;;;;;;1999.90;999.90;;;;;;;0.11;100.00;93179.25;5010743;28;20263;-58
2023/12/02 01:28:49;;;;;;;1999.90;999.90;;;;;;;0.13;100.00;93186.88;5010559;28;20203;-57
2023/12/02 01:31:15;;;;;;;1999.90;999.90;;;;;;;0.14;100.00;93185.75;5011087;28;20195;-59
2023/12/02 01:33:40;;;;;;;1999.90;999.90;;;;;;;0.13;100.00;93176.13;5010472;28;20202;-57
2023/12/02 01:36:11;;;;;;;1999.90;999.90;;;;;;;0.12;100.00;93175.41;5010662;28;20192;-58
2023/12/02 01:38:36;;;;;;;1999.90;999.90;;;;;;;0.14;100.00;93167.69;5010917;28;20217;-57
2023/12/02 01:41:01;;;;;;;1999.90;999.90;;;;;;;-0.01;100.00;93160.91;5010531;28;20203;-58
2023/12/02 01:43:27;;;;;;;1999.90;999.90;;;;;;;0.05;100.00;93162.03;5010670;28;20202;-58
2023/12/02 01:45:54;;;;;;;1999.90;999.90;;;;;;;0.06;100.00;93168.91;5010263;28;20390;-58
2023/12/02 01:48:21;;;;;;;1999.90;999.90;;;;;;;0.10;100.00;93164.28;5010744;28;20249;-59
2023/12/02 01:50:47;;;;;;;1999.90;999.90;;;;;;;0.13;100.00;93171.56;5010313;28;20202;-58
2023/12/02 01:53:13;;;;;;;1999.90;999.90;;;;;;;0.16;100.00;93167.31;5010735;28;20237;-57
2023/12/02 01:55:38;;;;;;;1999.90;999.90;;;;;;;0.16;100.00;93168.09;5010665;28;20216;-58
2023/12/02 01:58:04;;;;;;;1999.90;999.90;;;;;;;0.18;100.00;93168.44;5010310;28;20206;-58
2023/12/02 02:00:30;;;;;;;1999.90;999.90;;;;;;;0.17;100.00;93164.25;5010032;28;20203;-58
2023/12/02 02:02:55;;;;;;;1999.90;999.90;;;;;;;0.18;100.00;93162.34;5010326;28;20221;-60
2023/12/02 02:05:21;;;;;;;1999.90;999.90;;;;;;;0.17;100.00;93160.81;5010292;28;20203;-58
2023/12/02 02:07:46;;;;;;;1999.90;999.90;;;;;;;0.15;100.00;93163.13;5010146;28;20209;-58
2023/12/02 02:10:11;;;;;;;1999.90;999.90;;;;;;;0.17;100.00;93169.59;5010409;28;20206;-58
2023/12/02 02:12:37;;;;;;;1999.90;999.90;;;;;;;0.18;100.00;93167.69;5010445;28;20214;-58
2023/12/02 02:15:02;;;;;;;1999.90;999.90;;;;;;;0.09;100.00;93157.41;5010271;28;20262;-59
2023/12/02 02:17:28;;;;;;;1999.90;999.90;;;;;;;0.07;100.00;93157.00;5009658;28;20217;-58
2023/12/02 02:19:53;;;;;;;1999.90;999.90;;;;;;;0.13;100.00;93165.41;5009674;28;20211;-58
2023/12/02 02:22:18;;;;;;;1999.90;999.90;;;;;;;0.13;100.00;93152.78;5009771;28;20190;-58
2023/12/02 02:24:44;;;;;;;1999.90;999.90;;;;;;;0.14;100.00;93154.28;5010024;28;20280;-56
2023/12/02 02:27:09;;;;;;;1999.90;999.90;;;;;;;0.07;100.00;93151.66;5009627;28;20363;-58
2023/12/02 02:29:35;;;;;;;1999.90;999.90;;;;;;;0.12;100.00;93164.66;5009552;28;20231;-59
2023/12/02 02:32:00;;;;;;;1999.90;999.90;;;;;;;0.07;100.00;93165.06;5009681;28;20194;-59
2023/12/02 02:34:25;;;;;;;1999.90;999.90;;;;;;;0.10;100.00;93176.94;5009992;28;20205;-58
2023/12/02 02:36:51;;;;;;;1999.90;999.90;;;;;;;0.05;100.00;93172.75;5009845;28;20191;-58
2023/12/02 02:39:17;;;;;;;1999.90;999.90;;;;;;;-0.02;100.00;93167.41;5009415;28;20221;-59
2023/12/02 02:41:42;;;;;;;1999.90;999.90;;;;;;;-0.05;100.00;93170.88;5009455;28;20225;-57
2023/12/02 02:44:07;;;;;;;1999.90;999.90;;;;;;;-0.07;100.00;93184.66;5010031;28;20200;-56
2023/12/02 02:46:33;;;;;;;1999.90;999.90;;;;;;;-0.11;100.00;93185.84;5009196;28;20237;-56
2023/12/02 02:48:58;;;;;;;1999.90;999.90;;;;;;;-0.07;100.00;93181.25;5009186;28;20183;-56
2023/12/02 02:51:24;;;;;;;1999.90;999.90;;;;;;;-0.04;100.00;93183.91;5009901;28;20192;-56
2023/12/02 02:53:49;;;;;;;1999.90;999.90;;;;;;;-0.02;100.00;93180.81;5009472;28;20377;-57
2023/12/02 02:56:14;;;;;;;1999.90;999.90;;;;;;;0.00;100.00;93183.91;5009498;28;20257;-56
2023/12/02 02:58:40;;;;;;;1999.90;999.90;;;;;;;0.03;100.00;93193.81;5008948;28;20199;-56
2023/12/02 03:01:05;;;;;;;1999.90;999.90;;;;;;;0.03;100.00;93187.72;5008581;28;20278;-56
2023/12/02 03:03:31;;;;;;;1999.90;999.90;;;;;;;0.03;100.00;93189.22;5009117;28;20194;-55
2023/12/02 03:05:56;;;;;;;1999.90;999.90;;;;;;;0.01;100.00;93190.78;5008534;28;20207;-57
2023/12/02 03:08:22;;;;;;;1999.90;999.90;;;;;;;-0.01;100.00;93185.81;5009170;28;20191;-56
2023/12/02 03:10:48;;;;;;;1999.90;999.90;;;;;;;-0.02;100.00;93183.50;5008712;28;20214;-57
2023/12/02 03:13:14;;;;;;;1999.90;999.90;;;;;;;-0.05;100.00;93187.75;5008951;28;20197;-57
2023/12/02 03:15:39;;;;;;;1999.90;999.90;;;;;;;-0.07;100.00;93187.34;5009241;28;20340;-57
2023/12/02 03:18:04;;;;;;;1999.90;999.90;;;;;;;-0.06;100.00;93185.44;5008790;28;20202;-60
2023/12/02 03:20:30;;;;;;;1999.90;999.90;;;;;;;-0.08;100.00;93195.78;5008975;28;20274;-60
2023/12/02 03:22:55;;;;;;;1999.90;999.90;;;;;;;-0.09;100.00;93202.31;5008663;28;20273;-59
2023/12/02 03:25:20;;;;;;;1999.90;999.90;;;;;;;-0.16;100.00;93200.44;5008616;28;20286;-60
2023/12/02 03:27:46;;;;;;;1999.90;999.90;;;;;;;-0.14;100.00;93205.41;5009229;28;20237;-60
2023/12/02 03:30:12;;;;;;;1999.90;999.90;;;;;;;-0.29;100.00;93203.94;5008364;28;20222;-59
2023/12/02 03:32:41;;;;;;;1999.90;999.90;;;;;;;-0.23;100.00;93213.09;5008426;28;20211;-61
2023/12/02 03:35:10;;;;;;;1999.90;999.90;;;;;;;-0.18;100.00;93204.66;5008821;28;20196;-60
2023/12/02 03:37:37;;;;;;;1999.90;999.90;;;;;;;-0.19;100.00;93211.16;5008706;28;20194;-59
2023/12/02 03:40:02;;;;;;;1999.90;999.90;;;;;;;-0.15;100.00;93230.66;5008155;28;20219;-59
2023/12/02 03:42:29;;;;;;;1999.90;999.90;;;;;;;-0.17;100.00;93225.69;5008151;28;20194;-60
2023/12/02 03:44:55;;;;;;;1999.90;999.90;;;;;;;-0.11;100.00;93226.06;5008305;28;20198;-60
2023/12/02 03:47:20;;;;;;;1999.90;999.90;;;;;;;-0.11;100.00;93232.19;5008507;28;20192;-60
2023/12/02 03:49:45;;;;;;;1999.90;999.90;;;;;;;-0.12;100.00;93232.59;5008797;28;20172;-60
2023/12/02 03:52:11;;;;;;;1999.90;999.90;;;;;;;-0.15;100.00;93236.03;5008591;28;20233;-60
2023/12/02 03:54:36;;;;;;;1999.90;999.90;;;;;;;-0.21;100.00;93232.25;5008551;28;20321;-60
2023/12/02 03:57:02;;;;;;;1999.90;999.90;;;;;;;-0.25;100.00;93216.16;5008709;28;20195;-60
2023/12/02 03:59:27;;;;;;;1999.90;999.90;;;;;;;-0.40;100.00;93208.56;5007759;28;20191;-60
2023/12/02 04:01:52;;;;;;;1999.90;999.90;;;;;;;-0.39;100.00;93202.03;5007832;28;20199;-60
2023/12/02 04:04:18;;;;;;;1999.90;999.90;;;;;;;-0.35;100.00;93189.41;5007863;28;20193;-61
2023/12/02 04:06:44;;;;;;;1999.90;999.90;;;;;;;-0.34;100.00;93188.22;5007752;28;20200;-60
2023/12/02 04:09:10;;;;;;;1999.90;999.90;;;;;;;-0.42;100.00;93194.78;5007816;28;20191;-57
2023/12/02 04:11:35;;;;;;;1999.90;999.90;;;;;;;-0.38;100.00;93180.22;5007927;28;20196;-57
2023/12/02 04:14:01;;;;;;;1999.90;999.90;;;;;;;-0.40;100.00;93181.75;5007803;28;20212;-58
2023/12/02 04:16:26;;;;;;;1999.90;999.90;;;;;;;-0.51;100.00;93187.13;5007475;28;20213;-57
2023/12/02 04:18:51;;;;;;;1999.90;999.90;;;;;;;-0.56;100.00;93192.91;5007737;28;20188;-57
2023/12/02 04:21:17;;;;;;;1999.90;999.90;;;;;;;-0.46;100.00;93216.25;5007450;28;20212;-56
2023/12/02 04:23:43;;;;;;;1999.90;999.90;;;;;;;-0.45;100.00;93254.50;5008013;28;20199;-59
2023/12/02 04:26:08;;;;;;;1999.90;999.90;;;;;;;-0.42;100.00;93256.41;5008012;28;20300;-60
2023/12/02 04:28:34;;;;;;;1999.90;999.90;;;;;;;-0.39;100.00;93274.41;5007542;28;20202;-60
2023/12/02 04:30:59;;;;;;;1999.90;999.90;;;;;;;-0.34;100.00;93271.31;5007884;28;20267;-60
2023/12/02 04:33:24;;;;;;;1999.90;999.90;;;;;;;-0.36;100.00;93257.56;5007482;28;20305;-60
2023/12/02 04:35:50;;;;;;;1999.90;999.90;;;;;;;-0.41;100.00;93271.34;5007403;28;20201;-60
2023/12/02 04:38:16;;;;;;;1999.90;999.90;;;;;;;-0.40;100.00;93254.13;5007468;28;20202;-60
2023/12/02 04:40:41;;;;;;;1999.90;999.90;;;;;;;-0.55;100.00;93260.66;5007297;28;20288;-60
2023/12/02 04:43:06;;;;;;;1999.90;999.90;;;;;;;-0.50;100.00;93241.50;5007630;28;20203;-60
2023/12/02 04:45:32;;;;;;;1999.90;999.90;;;;;;;-0.50;100.00;93236.91;5007403;28;20198;-59
2023/12/02 04:47:57;;;;;;;1999.90;999.90;;;;;;;-0.54;100.00;93246.13;5007864;28;20203;-60
2023/12/02 04:50:22;;;;;;;1999.90;999.90;;;;;;;-0.51;100.00;93234.63;5007859;28;20211;-60
2023/12/02 04:52:49;;;;;;;1999.90;999.90;;;;;;;-0.63;100.00;93243.06;5007269;28;20180;-59
2023/12/02 04:55:14;;;;;;;1999.90;999.90;;;;;;;-0.68;100.00;93235.41;5007365;28;20209;-60
2023/12/02 04:57:40;;;;;;;1999.90;999.90;;;;;;;-0.71;100.00;93225.47;5007629;28;20406;-60
2023/12/02 05:00:13;;;;;;;1999.90;999.90;;;;;;;-0.67;100.00;93232.34;5007515;28;20214;-60
2023/12/02 05:02:42;;;;;;;1999.90;999.90;;;;;;;-0.69;100.00;93248.03;5007731;28;20201;-60
2023/12/02 05:05:12;;;;;;;1999.90;999.90;;;;;;;-0.65;100.00;93248.78;5007211;28;20188;-59
2023/12/02 05:07:38;;;;;;;1999.90;999.90;;;;;;;-0.60;100.00;93247.66;5007938;28;20225;-61
2023/12/02 05:10:04;;;;;;;1999.90;999.90;;;;;;;-0.63;100.00;93253.78;5007376;28;20233;-60
2023/12/02 05:12:30;;;;;;;1999.90;999.90;;;;;;;-0.66;100.00;93262.56;5007120;28;20203;-59
2023/12/02 05:14:56;;;;;;;1999.90;999.90;;;;;;;-0.58;100.00;93264.13;5007621;28;20225;-60
2023/12/02 05:17:21;;;;;;;1999.90;999.90;;;;;;;-0.54;100.00;93276.34;5007083;28;20206;-60
2023/12/02 05:19:47;;;;;;;1999.90;999.90;;;;;;;-0.55;100.00;93276.72;5006951;28;20202;-60
2023/12/02 05:22:12;;;;;;;1999.90;999.90;;;;;;;-0.53;100.00;93279.78;5007555;28;20247;-59
2023/12/02 05:24:38;;;;;;;1999.90;999.90;;;;;;;-0.56;100.00;93284.00;5009038;28;20203;-59
2023/12/02 05:27:03;;;;;;;1999.90;999.90;;;;;;;-0.72;100.00;93305.06;5010606;28;20201;-60
2023/12/02 05:29:29;;;;;;;1999.90;999.90;;;;;;;-0.70;100.00;93329.56;5011007;28;20210;-60
2023/12/02 05:31:54;;;;;;;1999.90;999.90;;;;;;;-0.71;100.00;93327.25;5010680;28;20243;-59
2023/12/02 05:34:19;;;;;;;1999.90;999.90;;;;;;;-0.71;100.00;93320.00;5010653;28;20205;-60
2023/12/02 05:36:46;;;;;;;1999.90;999.90;;;;;;;-0.67;100.00;93317.31;5011088;28;20243;-58
2023/12/02 05:39:13;;;;;;;1999.90;999.90;;;;;;;-0.67;100.00;93322.66;5010324;28;20199;-59
2023/12/02 05:41:40;;;;;;;1999.90;999.90;;;;;;;-0.63;100.00;93318.06;5010144;28;20258;-61
2023/12/02 05:44:06;;;;;;;1999.90;999.90;;;;;;;-0.59;100.00;93324.19;5010640;28;20313;-59
2023/12/02 05:46:31;;;;;;;1999.90;999.90;;;;;;;-0.60;100.00;93330.72;5010549;28;20196;-60
2023/12/02 05:48:56;;;;;;;1999.90;999.90;;;;;;;-0.56;100.00;93296.63;5010691;28;20195;-60
2023/12/02 05:51:22;;;;;;;1999.90;999.90;;;;;;;-0.56;100.00;93291.28;5010439;28;20182;-59
2023/12/02 05:53:47;;;;;;;1999.90;999.90;;;;;;;-0.61;100.00;93310.44;5010728;28;20214;-60
2023/12/02 05:56:13;;;;;;;1999.90;999.90;;;;;;;-0.61;100.00;93313.09;5010895;28;20209;-58
2023/12/02 05:58:38;;;;;;;1999.90;999.90;;;;;;;-0.67;100.00;93302.00;5010466;28;20214;-59
2023/12/02 06:01:04;;;;;;;1999.90;999.90;;;;;;;-0.69;100.00;93290.16;5010299;28;20349;-60
2023/12/02 06:03:29;;;;;;;1999.90;999.90;;;;;;;-0.66;100.00;93297.41;5010344;28;20253;-57
2023/12/02 06:05:55;;;;;;;1999.90;999.90;;;;;;;-0.67;100.00;93318.09;5009874;28;20428;-58
2023/12/02 06:08:21;;;;;;;1999.90;999.90;;;;;;;-0.64;100.00;93321.91;5010009;28;20202;-58
2023/12/02 06:10:46;;;;;;;1999.90;999.90;;;;;;;-0.62;100.00;93311.59;5010220;28;20232;-57
2023/12/02 06:13:11;;;;;;;1999.90;999.90;;;;;;;-0.69;100.00;93319.63;5009973;28;20210;-57
2023/12/02 06:15:37;;;;;;;1999.90;999.90;;;;;;;-0.75;100.00;93332.63;5010671;28;20204;-57
2023/12/02 06:18:03;;;;;;;1999.90;999.90;;;;;;;-0.76;100.00;93330.34;5009963;28;20276;-57
2023/12/02 06:20:28;;;;;;;1999.90;999.90;;;;;;;-0.74;100.00;93352.13;5009531;28;20283;-58
2023/12/02 06:22:53;;;;;;;1999.90;999.90;;;;;;;-0.74;100.00;93344.09;5010164;28;20185;-57
2023/12/02 06:25:19;;;;;;;1999.90;999.90;;;;;;;-0.70;100.00;93350.22;5010195;28;20199;-60
2023/12/02 06:27:48;;;;;;;1999.90;999.90;;;;;;;-0.66;100.00;93359.03;5026209;28;20210;-60
2023/12/02 06:30:17;;;;;;;1999.90;999.90;;;;;;;-0.64;100.00;93354.06;5009919;28;20569;-60
2023/12/02 06:32:43;;;;;;;1999.90;999.90;;;;;;;-0.66;100.00;93356.34;5009891;28;20217;-60
2023/12/02 06:35:09;;;;;;;1999.90;999.90;;;;;;;-0.64;100.00;93365.56;5009046;28;20200;-60
2023/12/02 06:37:34;;;;;;;1999.90;999.90;;;;;;;-0.67;100.00;93365.53;5009308;28;20203;-60
2023/12/02 06:39:59;;;;;;;1999.90;999.90;;;;;;;-0.68;100.00;93358.66;5010091;28;20230;-60
2023/12/02 06:42:25;;;;;;;1999.90;999.90;;;;;;;-0.69;100.00;93363.22;5009843;28;20226;-60
2023/12/02 06:44:51;;;;;;;1999.90;999.90;;;;;;;-0.68;100.00;93372.06;5009480;28;20202;-60
2023/12/02 06:47:16;;;;;;;1999.90;999.90;;;;;;;-0.72;100.00;93384.69;5009622;28;20201;-60
2023/12/02 06:49:42;;;;;;;1999.90;999.90;;;;;;;-0.75;100.00;93390.78;5009055;28;20213;-61
2023/12/02 06:52:08;;;;;;;1999.90;999.90;;;;;;;-0.74;100.00;93395.78;5009660;28;20501;-60
2023/12/02 06:54:37;;;;;;;1999.90;999.90;;;;;;;-0.65;100.00;93400.75;5009569;28;20278;-60
2023/12/02 06:57:04;;;;;;;1999.90;999.90;;;;;;;-0.62;100.00;93402.69;5009047;28;20362;-60
2023/12/02 06:59:30;;;;;;;1999.90;999.90;;;;;;;-0.63;100.00;93409.16;5009812;28;20249;-60
2023/12/02 07:01:55;;;;;;;1999.90;999.90;;;;;;;-0.63;100.00;93414.53;5009191;28;20204;-60
2023/12/02 07:04:20;;;;;;;1999.90;999.90;;;;;;;-0.60;100.00;93408.41;5008983;28;20284;-60
2023/12/02 07:06:45;;;;;;;1999.90;999.90;;;;;;;-0.54;100.00;93409.56;5009080;28;20209;-61
2023/12/02 07:09:11;;;;;;;1999.90;999.90;;;;;;;-0.54;100.00;93422.97;5008952;28;20197;-60
2023/12/02 07:11:37;;;;;;;1999.90;999.90;;;;;;;-0.56;100.00;93417.22;5008907;28;20200;-59
2023/12/02 07:14:03;;;;;;;1999.90;999.90;;;;;;;-0.65;100.00;93422.19;5008902;28;20194;-59
2023/12/02 07:16:28;;;;;;;1999.90;999.90;;;;;;;-0.66;100.00;93418.75;5009401;28;20189;-60
2023/12/02 07:18:53;;;;;;;1999.90;999.90;;;;;;;-0.63;100.00;93411.84;5008828;28;20186;-60
2023/12/02 07:21:19;;;;;;;1999.90;999.90;;;;;;;-0.62;100.00;93411.47;5008481;28;20189;-60
2023/12/02 07:23:44;;;;;;;1999.90;999.90;;;;;;;-0.58;100.00;93412.22;5009177;28;20204;-61
2023/12/02 07:26:10;;;;;;;1999.90;999.90;;;;;;;-0.55;100.00;93413.38;5008195;28;20197;-60
2023/12/02 07:28:35;;;;;;;1999.90;999.90;;;;;;;-0.48;100.00;93410.72;5008759;28;20195;-60
2023/12/02 07:31:01;;;;;;;1999.90;999.90;;;;;;;-0.52;100.00;93416.06;5008272;28;20229;-60
2023/12/02 07:33:26;;;;;;;1999.90;999.90;;;;;;;-0.45;100.00;93442.09;5008401;28;20194;-60
2023/12/02 07:35:51;;;;;;;1999.90;999.90;;;;;;;-0.42;100.00;93441.34;5008751;28;20310;-61
2023/12/02 07:38:17;;;;;;;1999.90;999.90;;;;;;;-0.35;100.00;93441.34;5008433;28;20378;-60
2023/12/02 07:40:42;;;;;;;1999.90;999.90;;;;;;;-0.37;100.00;93438.28;5008501;28;20215;-63
2023/12/02 07:43:08;;;;;;;1999.90;999.90;;;;;;;-0.36;100.00;93445.19;5008225;28;20244;-61
2023/12/02 07:45:34;;;;;;;1999.90;999.90;;;;;;;-0.40;100.00;93434.47;5008222;28;20471;-59
2023/12/02 07:47:59;;;;;;;1999.90;999.90;;;;;;;-0.41;100.00;93442.88;5008307;28;20190;-60
2023/12/02 07:50:25;;;;;;;1999.90;999.90;;;;;;;-0.39;100.00;93430.63;5008611;28;20240;-60
2023/12/02 07:52:51;;;;;;;1999.90;999.90;;;;;;;-0.47;100.00;93422.97;5007964;28;20167;-60
2023/12/02 07:55:16;;;;;;;1999.90;999.90;;;;;;;-0.46;100.00;93421.81;5008544;28;20194;-60
2023/12/02 07:57:41;;;;;;;1999.90;999.90;;;;;;;-0.51;100.00;93422.22;5007878;28;20259;-60
2023/12/02 08:00:08;;;;;;;1999.90;999.90;;;;;;;-0.48;100.00;93410.72;5007986;28;20441;-60
2023/12/02 08:02:34;;;;;;;1999.90;999.90;;;;;;;-0.47;100.00;93409.59;5008233;28;20188;-60
2023/12/02 08:04:59;;;;;;;1999.90;999.90;;;;;;;-0.48;100.00;93402.66;5007983;28;20233;-61
2023/12/02 08:07:25;;;;;;;1999.90;999.90;;;;;;;-0.50;100.00;93404.97;5008104;28;20371;-60
2023/12/02 08:09:50;;;;;;;1999.90;999.90;;;;;;;-0.59;100.00;93404.56;5007862;28;20194;-61
2023/12/02 08:12:15;;;;;;;1999.90;999.90;;;;;;;-0.52;100.00;93410.72;5007891;28;20185;-60
2023/12/02 08:14:41;;;;;;;1999.90;999.90;;;;;;;-0.47;100.00;93401.53;5007609;28;20450;-60
2023/12/02 08:17:07;;;;;;;1999.90;999.90;;;;;;;-0.43;100.00;93396.94;5007532;28;20186;-60
2023/12/02 08:19:33;;;;;;;1999.90;999.90;;;;;;;-0.40;100.00;93396.19;5007873;28;20186;-61
2023/12/02 08:21:58;;;;;;;1999.90;999.90;;;;;;;-0.36;100.00;93386.22;5007511;28;20235;-62
2023/12/02 08:24:23;;;;;;;1999.90;999.90;;;;;;;-0.42;100.00;93382.38;5007469;28;20206;-61
2023/12/02 08:26:49;;;;;;;1999.90;999.90;;;;;;;-0.34;100.00;93378.56;5007959;28;20183;-60
2023/12/02 08:29:14;;;;;;;1999.90;999.90;;;;;;;-0.35;100.00;93360.94;5007512;28;20198;-60
2023/12/02 08:31:40;;;;;;;1999.90;999.90;;;;;;;-0.22;100.00;93357.47;5007476;28;20200;-60
2023/12/02 08:34:05;;;;;;;1999.90;999.90;;;;;;;-0.16;100.00;93347.13;5007593;28;20196;-60
2023/12/02 08:36:30;;;;;;;1999.90;999.90;;;;;;;-0.16;100.00;93339.84;5007323;28;20201;-60
2023/12/02 08:38:56;;;;;;;1999.90;999.90;;;;;;;-0.18;100.00;93330.69;5007495;28;20193;-60
2023/12/02 08:41:21;;;;;;;1999.90;999.90;;;;;;;-0.20;100.00;93324.91;5007454;28;20225;-60
2023/12/02 08:43:46;;;;;;;1999.90;999.90;;;;;;;-0.20;100.00;93319.56;5007474;28;20187;-60
2023/12/02 08:46:21;;;;;;;1999.90;999.90;;;;;;;-0.31;100.00;93308.09;5007926;28;20228;-60
2023/12/02 08:48:46;;;;;;;1999.90;999.90;;;;;;;-0.29;100.00;93301.19;5007323;28;20183;-61
2023/12/02 08:51:12;;;;;;;1999.90;999.90;;;;;;;-0.23;100.00;93296.97;5007790;28;20213;-61
2023/12/02 08:53:37;;;;;;;1999.90;999.90;;;;;;;-0.34;100.00;93287.41;5007863;28;20215;-60
2023/12/02 08:56:04;;;;;;;1999.90;999.90;;;;;;;-0.33;100.00;93283.56;5007834;28;20244;-60
2023/12/02 08:58:29;;;;;;;1999.90;999.90;;;;;;;-0.26;100.00;93288.91;5007279;28;20283;-60
2023/12/02 09:00:54;;;;;;;1999.90;999.90;;;;;;;-0.19;100.00;93286.22;5011125;28;20210;-60
2023/12/02 09:03:20;;;;;;;1999.90;999.90;;;;;;;-0.19;100.00;93283.53;5011125;28;20197;-61
2023/12/02 09:05:45;;;;;;;1999.90;999.90;;;;;;;-0.19;100.00;93283.53;5011429;28;20215;-61
2023/12/02 09:08:11;;;;;;;1999.90;999.90;;;;;;;-0.21;100.00;93283.19;5010994;28;20201;-60
2023/12/02 09:10:37;;;;;;;1999.90;999.90;;;;;;;-0.22;100.00;93284.31;5011208;28;20243;-60
2023/12/02 09:13:46;;;;;;;1999.90;999.90;;;;;;;-0.19;100.00;93278.19;5011273;28;20201;-61
2023/12/02 09:16:32;;;;;;;1999.90;999.90;;;;;;;-0.15;100.00;93268.97;4996315;28;20186;-61
2023/12/02 09:18:57;;;;;;;1999.90;999.90;;;;;;;-0.16;100.00;93262.09;5026517;28;20216;-61
2023/12/02 09:21:42;;;;;;;1999.90;999.90;;;;;;;0.01;100.00;93249.78;5010662;28;20241;-60
2023/12/02 09:24:35;;;;;;;1999.90;999.90;;;;;;;-0.05;100.00;93241.38;5010968;28;20201;-60
2023/12/02 09:27:05;;;;;;;1999.90;999.90;;;;;;;0.00;100.00;93229.50;5010999;28;20485;-61
2023/12/02 09:29:40;;;;;;;1999.90;999.90;;;;;;;0.08;100.00;93212.22;5010769;28;20194;-61
2023/12/02 09:32:27;;;;;;;1999.90;999.90;;;;;;;0.21;100.00;93210.59;5027243;28;20192;-61
2023/12/02 09:34:52;;;;;;;1999.90;999.90;;;;;;;0.12;100.00;93212.19;5010487;28;20202;-61
2023/12/02 09:37:54;;;;;;;1999.90;999.90;;;;;;;0.15;100.00;93201.44;5010596;28;20208;-60
2023/12/02 09:40:20;;;;;;;1999.90;999.90;;;;;;;0.18;100.00;93189.91;5010494;28;20212;-61
2023/12/02 09:43:08;;;;;;;1999.90;999.90;;;;;;;0.16;100.00;93186.88;5010681;28;20197;-62
2023/12/02 09:45:44;;;;;;;1999.90;999.90;;;;;;;0.06;100.00;93189.63;5010137;28;20224;-61
2023/12/02 09:48:55;;;;;;;1999.90;999.90;;;;;;;0.01;100.00;93190.78;5010705;28;20256;-61
2023/12/02 09:51:54;;;;;;;1999.90;999.90;;;;;;;0.02;100.00;93197.66;5016618;28;20516;-61
2023/12/02 09:54:22;;;;;;;1999.90;999.90;;;;;;;-0.04;100.00;93199.22;5010796;28;20187;-61
2023/12/02 09:56:55;;;;;;;1999.90;999.90;;;;;;;0.03;100.00;93204.56;5010708;28;20494;-61
2023/12/02 09:59:56;;;;;;;1999.90;999.90;;;;;;;0.05;100.00;93210.28;5010109;28;20356;-61
2023/12/02 10:02:50;;;;;;;1999.90;999.90;;;;;;;-0.01;100.00;93219.91;5010583;28;20206;-60
2023/12/02 10:05:16;;;;;;;1999.90;999.90;;;;;;;-0.07;100.00;93232.19;5009899;28;20209;-61
2023/12/02 10:07:59;;;;;;;1999.90;999.90;;;;;;;-0.06;100.00;93241.75;5009857;28;20209;-61
2023/12/02 10:10:30;;;;;;;1999.90;999.90;;;;;;;-0.02;100.00;93251.34;5010220;28;20224;-60
2023/12/02 10:13:18;;;;;;;1999.90;999.90;;;;;;;-0.06;100.00;93261.28;5010377;28;20266;-60
2023/12/02 10:15:47;;;;;;;1999.90;999.90;;;;;;;-0.02;100.00;93269.34;5026341;28;20208;-60
2023/12/02 10:18:14;;;;;;;1999.90;999.90;;;;;;;-0.18;100.00;93279.72;5009875;28;20274;-60
2023/12/02 10:20:42;;;;;;;1999.90;999.90;;;;;;;-0.17;100.00;93281.25;5026164;28;20215;-60
2023/12/02 10:23:13;;;;;;;1999.90;999.90;;;;;;;-0.21;100.00;93275.13;5009650;28;20201;-60
2023/12/02 10:25:45;;;;;;;1999.90;999.90;;;;;;;-0.18;100.00;93248.31;5010030;28;20199;-60
2023/12/02 10:28:13;;;;;;;1999.90;999.90;;;;;;;-0.27;100.00;93245.28;5026392;28;20252;-60
2023/12/02 10:30:46;;;;;;;1999.90;999.90;;;;;;;-0.22;100.00;93241.41;5009941;28;20203;-60
2023/12/02 10:33:39;;;;;;;1999.90;999.90;;;;;;;-0.25;100.00;93236.84;5009701;28;20201;-60
2023/12/02 10:36:10;;;;;;;1999.90;999.90;;;;;;;-0.28;100.00;93233.00;4981783;28;20267;-60
2023/12/02 10:39:09;;;;;;;1999.90;999.90;;;;;;;-0.24;100.00;93228.44;5026132;28;20265;-61
2023/12/02 10:41:57;;;;;;;1999.90;999.90;;;;;;;-0.27;100.00;93217.69;5009706;28;20289;-61
2023/12/02 10:44:23;;;;;;;1999.90;999.90;;;;;;;-0.32;100.00;93226.16;5009083;28;20202;-60
2023/12/02 10:46:50;;;;;;;1999.90;999.90;;;;;;;-0.38;100.00;93216.97;5009327;28;20246;-61
2023/12/02 10:49:16;;;;;;;1999.90;999.90;;;;;;;-0.33;100.00;93219.25;5025588;28;20201;-60
2023/12/02 10:51:43;;;;;;;1999.90;999.90;;;;;;;-0.33;100.00;93213.88;5009332;28;20237;-60